sensor_id;sensor_type;location;lat;lon;timestamp;temperature;humidity
7606;DHT22;3844;53.360;9.738;2023-06-10T00:00:23;14.80;91.80
7606;DHT22;3844;53.360;9.738;2023-06-10T00:02:25;14.70;92.30
7606;DHT22;3844;53.360;9.738;2023-06-10T00:04:27;14.70;92.90
7606;DHT22;3844;53.360;9.738;2023-06-10T00:06:28;14.60;93.10
7606;DHT22;3844;53.360;9.738;2023-06-10T00:08:28;14.60;93.10
7606;DHT22;3844;53.360;9.738;2023-06-10T00:10:31;14.50;93.10
7606;DHT22;3844;53.360;9.738;2023-06-10T00:14:38;14.50;93.40
7606;DHT22;3844;53.360;9.738;2023-06-10T00:16:39;14.50;93.30
7606;DHT22;3844;53.360;9.738;2023-06-10T00:18:40;14.50;93.20
7606;DHT22;3844;53.360;9.738;2023-06-10T00:20:42;14.50;93.30
7606;DHT22;3844;53.360;9.738;2023-06-10T00:22:43;14.50;93.20
7606;DHT22;3844;53.360;9.738;2023-06-10T00:24:47;14.40;93.40
7606;DHT22;3844;53.360;9.738;2023-06-10T00:26:48;14.40;93.80
7606;DHT22;3844;53.360;9.738;2023-06-10T00:28:49;14.30;94.40
7606;DHT22;3844;53.360;9.738;2023-06-10T00:30:50;14.30;94.30
7606;DHT22;3844;53.360;9.738;2023-06-10T00:32:50;14.20;94.60
7606;DHT22;3844;53.360;9.738;2023-06-10T00:34:51;14.20;94.60
7606;DHT22;3844;53.360;9.738;2023-06-10T00:36:52;14.10;94.60
7606;DHT22;3844;53.360;9.738;2023-06-10T00:38:52;14.10;94.40
7606;DHT22;3844;53.360;9.738;2023-06-10T00:40:53;14.00;94.30
7606;DHT22;3844;53.360;9.738;2023-06-10T00:42:54;14.00;94.80
7606;DHT22;3844;53.360;9.738;2023-06-10T00:44:55;13.90;95.00
7606;DHT22;3844;53.360;9.738;2023-06-10T00:46:55;13.90;94.90
7606;DHT22;3844;53.360;9.738;2023-06-10T00:48:56;13.90;94.80
7606;DHT22;3844;53.360;9.738;2023-06-10T00:50:58;13.90;94.80
7606;DHT22;3844;53.360;9.738;2023-06-10T00:53:00;13.80;94.90
7606;DHT22;3844;53.360;9.738;2023-06-10T00:55:02;13.80;95.00
7606;DHT22;3844;53.360;9.738;2023-06-10T00:57:03;13.70;95.00
7606;DHT22;3844;53.360;9.738;2023-06-10T00:59:04;13.70;95.20
7606;DHT22;3844;53.360;9.738;2023-06-10T01:01:05;13.70;95.20
7606;DHT22;3844;53.360;9.738;2023-06-10T01:03:06;13.70;95.50
7606;DHT22;3844;53.360;9.738;2023-06-10T01:05:09;13.70;95.40
7606;DHT22;3844;53.360;9.738;2023-06-10T01:11:52;13.60;95.30
7606;DHT22;3844;53.360;9.738;2023-06-10T01:13:55;13.50;95.30
7606;DHT22;3844;53.360;9.738;2023-06-10T01:15:57;13.50;95.20
7606;DHT22;3844;53.360;9.738;2023-06-10T01:18:06;13.50;95.10
7606;DHT22;3844;53.360;9.738;2023-06-10T01:20:10;13.50;94.90
7606;DHT22;3844;53.360;9.738;2023-06-10T01:22:12;13.40;94.70
7606;DHT22;3844;53.360;9.738;2023-06-10T01:24:16;13.40;94.70
7606;DHT22;3844;53.360;9.738;2023-06-10T01:26:22;13.40;94.80
7606;DHT22;3844;53.360;9.738;2023-06-10T01:28:52;13.40;94.30
7606;DHT22;3844;53.360;9.738;2023-06-10T01:33:12;13.40;93.90
7606;DHT22;3844;53.360;9.738;2023-06-10T01:35:14;13.30;94.10
7606;DHT22;3844;53.360;9.738;2023-06-10T01:37:20;13.30;94.20
7606;DHT22;3844;53.360;9.738;2023-06-10T01:39:24;13.20;94.40
7606;DHT22;3844;53.360;9.738;2023-06-10T01:41:25;13.10;94.40
7606;DHT22;3844;53.360;9.738;2023-06-10T01:43:26;13.10;94.80
7606;DHT22;3844;53.360;9.738;2023-06-10T01:45:27;13.10;94.90
7606;DHT22;3844;53.360;9.738;2023-06-10T01:47:28;13.00;94.90
7606;DHT22;3844;53.360;9.738;2023-06-10T01:49:29;13.00;95.20
7606;DHT22;3844;53.360;9.738;2023-06-10T01:51:29;12.90;95.30
7606;DHT22;3844;53.360;9.738;2023-06-10T01:53:32;12.90;95.50
7606;DHT22;3844;53.360;9.738;2023-06-10T01:55:32;12.90;95.70
7606;DHT22;3844;53.360;9.738;2023-06-10T01:57:33;12.80;95.70
7606;DHT22;3844;53.360;9.738;2023-06-10T01:59:34;12.80;95.60
7606;DHT22;3844;53.360;9.738;2023-06-10T02:01:34;12.80;95.50
7606;DHT22;3844;53.360;9.738;2023-06-10T02:03:35;12.80;95.70
7606;DHT22;3844;53.360;9.738;2023-06-10T02:05:36;12.80;95.50
7606;DHT22;3844;53.360;9.738;2023-06-10T02:07:37;12.70;95.60
7606;DHT22;3844;53.360;9.738;2023-06-10T02:09:38;12.70;95.70
7606;DHT22;3844;53.360;9.738;2023-06-10T02:11:39;12.70;95.70
7606;DHT22;3844;53.360;9.738;2023-06-10T02:13:40;12.70;95.60
7606;DHT22;3844;53.360;9.738;2023-06-10T02:15:41;12.70;95.40
7606;DHT22;3844;53.360;9.738;2023-06-10T02:17:42;12.70;95.40
7606;DHT22;3844;53.360;9.738;2023-06-10T02:19:42;12.70;95.40
7606;DHT22;3844;53.360;9.738;2023-06-10T02:21:43;12.70;95.10
7606;DHT22;3844;53.360;9.738;2023-06-10T02:23:44;12.70;95.00
7606;DHT22;3844;53.360;9.738;2023-06-10T02:25:45;12.60;95.20
7606;DHT22;3844;53.360;9.738;2023-06-10T02:27:45;12.50;95.30
7606;DHT22;3844;53.360;9.738;2023-06-10T02:29:46;12.50;95.30
7606;DHT22;3844;53.360;9.738;2023-06-10T02:31:47;12.50;95.30
7606;DHT22;3844;53.360;9.738;2023-06-10T02:33:47;12.50;95.30
7606;DHT22;3844;53.360;9.738;2023-06-10T02:35:48;12.40;95.30
7606;DHT22;3844;53.360;9.738;2023-06-10T02:37:49;12.40;95.50
7606;DHT22;3844;53.360;9.738;2023-06-10T02:39:51;12.40;95.70
7606;DHT22;3844;53.360;9.738;2023-06-10T02:41:51;12.40;95.70
7606;DHT22;3844;53.360;9.738;2023-06-10T02:43:52;12.40;95.70
7606;DHT22;3844;53.360;9.738;2023-06-10T02:45:53;12.40;95.70
7606;DHT22;3844;53.360;9.738;2023-06-10T02:47:53;12.40;95.70
7606;DHT22;3844;53.360;9.738;2023-06-10T02:49:54;12.40;95.70
7606;DHT22;3844;53.360;9.738;2023-06-10T02:51:55;12.40;95.70
7606;DHT22;3844;53.360;9.738;2023-06-10T02:53:57;12.40;95.60
7606;DHT22;3844;53.360;9.738;2023-06-10T02:55:57;12.40;95.70
7606;DHT22;3844;53.360;9.738;2023-06-10T02:57:58;12.40;95.70
7606;DHT22;3844;53.360;9.738;2023-06-10T03:00:00;12.40;95.70
7606;DHT22;3844;53.360;9.738;2023-06-10T03:02:02;12.40;95.70
7606;DHT22;3844;53.360;9.738;2023-06-10T03:04:05;12.40;95.70
7606;DHT22;3844;53.360;9.738;2023-06-10T03:06:06;12.40;95.70
7606;DHT22;3844;53.360;9.738;2023-06-10T03:08:06;12.40;95.70
7606;DHT22;3844;53.360;9.738;2023-06-10T03:10:07;12.40;95.70
7606;DHT22;3844;53.360;9.738;2023-06-10T03:12:09;12.50;95.70
7606;DHT22;3844;53.360;9.738;2023-06-10T03:14:10;12.50;95.70
7606;DHT22;3844;53.360;9.738;2023-06-10T03:16:11;12.50;95.70
7606;DHT22;3844;53.360;9.738;2023-06-10T03:18:12;12.60;95.70
7606;DHT22;3844;53.360;9.738;2023-06-10T03:20:13;12.60;95.60
7606;DHT22;3844;53.360;9.738;2023-06-10T03:22:16;12.70;95.40
7606;DHT22;3844;53.360;9.738;2023-06-10T03:24:17;12.70;95.30
7606;DHT22;3844;53.360;9.738;2023-06-10T03:26:18;12.70;95.20
7606;DHT22;3844;53.360;9.738;2023-06-10T03:28:21;12.70;95.20
7606;DHT22;3844;53.360;9.738;2023-06-10T03:30:22;12.70;95.10
7606;DHT22;3844;53.360;9.738;2023-06-10T03:32:23;12.80;94.80
7606;DHT22;3844;53.360;9.738;2023-06-10T03:34:24;12.80;94.70
7606;DHT22;3844;53.360;9.738;2023-06-10T03:36:24;12.80;94.80
7606;DHT22;3844;53.360;9.738;2023-06-10T03:38:29;12.80;94.80
7606;DHT22;3844;53.360;9.738;2023-06-10T03:40:30;12.90;94.80
7606;DHT22;3844;53.360;9.738;2023-06-10T03:42:32;12.90;94.70
7606;DHT22;3844;53.360;9.738;2023-06-10T03:44:33;12.90;94.60
7606;DHT22;3844;53.360;9.738;2023-06-10T03:46:34;13.00;94.50
7606;DHT22;3844;53.360;9.738;2023-06-10T03:48:34;13.00;94.10
7606;DHT22;3844;53.360;9.738;2023-06-10T03:50:35;13.10;94.10
7606;DHT22;3844;53.360;9.738;2023-06-10T03:52:38;13.10;94.00
7606;DHT22;3844;53.360;9.738;2023-06-10T03:54:40;13.20;93.80
7606;DHT22;3844;53.360;9.738;2023-06-10T03:56:40;13.20;93.70
7606;DHT22;3844;53.360;9.738;2023-06-10T03:58:41;13.30;93.70
7606;DHT22;3844;53.360;9.738;2023-06-10T04:00:42;13.30;93.40
7606;DHT22;3844;53.360;9.738;2023-06-10T04:02:43;13.30;93.30
7606;DHT22;3844;53.360;9.738;2023-06-10T04:04:48;13.30;93.30
7606;DHT22;3844;53.360;9.738;2023-06-10T04:06:49;13.40;93.20
7606;DHT22;3844;53.360;9.738;2023-06-10T04:08:51;13.50;93.00
7606;DHT22;3844;53.360;9.738;2023-06-10T04:10:51;13.50;92.70
7606;DHT22;3844;53.360;9.738;2023-06-10T04:12:52;13.60;92.90
7606;DHT22;3844;53.360;9.738;2023-06-10T04:14:53;13.60;92.30
7606;DHT22;3844;53.360;9.738;2023-06-10T04:16:54;13.70;92.20
7606;DHT22;3844;53.360;9.738;2023-06-10T04:18:54;13.70;92.10
7606;DHT22;3844;53.360;9.738;2023-06-10T04:20:55;13.70;91.90
7606;DHT22;3844;53.360;9.738;2023-06-10T04:22:57;13.80;92.10
7606;DHT22;3844;53.360;9.738;2023-06-10T04:24:58;13.90;91.90
7606;DHT22;3844;53.360;9.738;2023-06-10T04:26:59;13.90;91.40
7606;DHT22;3844;53.360;9.738;2023-06-10T04:29:00;14.00;91.50
7606;DHT22;3844;53.360;9.738;2023-06-10T04:31:01;14.00;91.30
7606;DHT22;3844;53.360;9.738;2023-06-10T04:33:04;14.00;91.50
7606;DHT22;3844;53.360;9.738;2023-06-10T04:35:07;14.10;90.70
7606;DHT22;3844;53.360;9.738;2023-06-10T04:37:08;14.10;90.60
7606;DHT22;3844;53.360;9.738;2023-06-10T04:39:09;14.10;90.80
7606;DHT22;3844;53.360;9.738;2023-06-10T04:41:10;14.10;90.60
7606;DHT22;3844;53.360;9.738;2023-06-10T04:43:11;14.20;90.70
7606;DHT22;3844;53.360;9.738;2023-06-10T04:45:11;14.20;90.90
7606;DHT22;3844;53.360;9.738;2023-06-10T04:47:13;14.20;90.70
7606;DHT22;3844;53.360;9.738;2023-06-10T04:49:13;14.30;90.50
7606;DHT22;3844;53.360;9.738;2023-06-10T04:51:17;14.40;90.10
7606;DHT22;3844;53.360;9.738;2023-06-10T04:53:17;14.40;90.20
7606;DHT22;3844;53.360;9.738;2023-06-10T04:55:18;14.50;89.90
7606;DHT22;3844;53.360;9.738;2023-06-10T04:57:20;14.60;89.30
7606;DHT22;3844;53.360;9.738;2023-06-10T04:59:21;14.60;88.30
7606;DHT22;3844;53.360;9.738;2023-06-10T05:01:21;14.60;89.40
7606;DHT22;3844;53.360;9.738;2023-06-10T05:03:22;14.60;89.20
7606;DHT22;3844;53.360;9.738;2023-06-10T05:05:23;14.70;89.00
7606;DHT22;3844;53.360;9.738;2023-06-10T05:07:23;14.70;87.90
7606;DHT22;3844;53.360;9.738;2023-06-10T05:09:24;14.70;87.90
7606;DHT22;3844;53.360;9.738;2023-06-10T05:11:26;14.80;88.70
7606;DHT22;3844;53.360;9.738;2023-06-10T05:13:27;14.80;88.70
7606;DHT22;3844;53.360;9.738;2023-06-10T05:15:27;14.80;88.00
7606;DHT22;3844;53.360;9.738;2023-06-10T05:17:28;14.80;88.50
7606;DHT22;3844;53.360;9.738;2023-06-10T05:19:29;14.80;88.30
7606;DHT22;3844;53.360;9.738;2023-06-10T05:21:30;14.90;88.40
7606;DHT22;3844;53.360;9.738;2023-06-10T05:23:30;14.90;87.80
7606;DHT22;3844;53.360;9.738;2023-06-10T05:25:31;14.90;87.60
7606;DHT22;3844;53.360;9.738;2023-06-10T05:29:34;15.00;87.80
7606;DHT22;3844;53.360;9.738;2023-06-10T05:31:34;15.00;87.40
7606;DHT22;3844;53.360;9.738;2023-06-10T05:33:35;15.10;87.20
7606;DHT22;3844;53.360;9.738;2023-06-10T05:35:36;15.10;87.80
7606;DHT22;3844;53.360;9.738;2023-06-10T05:37:36;15.20;87.20
7606;DHT22;3844;53.360;9.738;2023-06-10T05:39:37;15.30;86.20
7606;DHT22;3844;53.360;9.738;2023-06-10T05:41:38;15.30;86.80
7606;DHT22;3844;53.360;9.738;2023-06-10T05:43:38;15.40;86.30
7606;DHT22;3844;53.360;9.738;2023-06-10T05:45:39;15.50;86.30
7606;DHT22;3844;53.360;9.738;2023-06-10T05:47:40;15.70;85.60
7606;DHT22;3844;53.360;9.738;2023-06-10T05:49:41;15.80;85.50
7606;DHT22;3844;53.360;9.738;2023-06-10T05:51:42;15.90;84.50
7606;DHT22;3844;53.360;9.738;2023-06-10T05:53:43;16.00;84.40
7606;DHT22;3844;53.360;9.738;2023-06-10T05:55:44;16.10;84.70
7606;DHT22;3844;53.360;9.738;2023-06-10T05:57:45;16.20;83.90
7606;DHT22;3844;53.360;9.738;2023-06-10T05:59:46;16.30;83.60
7606;DHT22;3844;53.360;9.738;2023-06-10T06:01:47;16.30;84.00
7606;DHT22;3844;53.360;9.738;2023-06-10T06:03:47;16.50;83.60
7606;DHT22;3844;53.360;9.738;2023-06-10T06:05:48;16.70;82.80
7606;DHT22;3844;53.360;9.738;2023-06-10T06:07:49;16.80;82.40
7606;DHT22;3844;53.360;9.738;2023-06-10T06:09:49;17.00;82.40
7606;DHT22;3844;53.360;9.738;2023-06-10T06:11:50;17.00;81.60
7606;DHT22;3844;53.360;9.738;2023-06-10T06:15:52;17.30;80.10
7606;DHT22;3844;53.360;9.738;2023-06-10T06:17:53;17.40;80.40
7606;DHT22;3844;53.360;9.738;2023-06-10T06:19:54;17.40;80.40
7606;DHT22;3844;53.360;9.738;2023-06-10T06:21:54;17.50;80.10
7606;DHT22;3844;53.360;9.738;2023-06-10T06:23:55;17.60;79.60
7606;DHT22;3844;53.360;9.738;2023-06-10T06:25:56;17.80;78.00
7606;DHT22;3844;53.360;9.738;2023-06-10T06:27:57;17.90;78.90
7606;DHT22;3844;53.360;9.738;2023-06-10T06:29:57;18.10;78.70
7606;DHT22;3844;53.360;9.738;2023-06-10T06:31:58;18.20;77.40
7606;DHT22;3844;53.360;9.738;2023-06-10T06:33:59;18.20;78.00
7606;DHT22;3844;53.360;9.738;2023-06-10T06:35:59;18.20;77.70
7606;DHT22;3844;53.360;9.738;2023-06-10T06:38:03;18.20;77.70
7606;DHT22;3844;53.360;9.738;2023-06-10T06:40:05;18.70;78.00
7606;DHT22;3844;53.360;9.738;2023-06-10T06:42:06;18.70;78.00
7606;DHT22;3844;53.360;9.738;2023-06-10T06:44:07;19.40;76.00
7606;DHT22;3844;53.360;9.738;2023-06-10T06:46:07;20.40;73.10
7606;DHT22;3844;53.360;9.738;2023-06-10T06:48:08;21.40;72.00
7606;DHT22;3844;53.360;9.738;2023-06-10T06:50:09;22.20;69.90
7606;DHT22;3844;53.360;9.738;2023-06-10T06:52:10;22.70;66.40
7606;DHT22;3844;53.360;9.738;2023-06-10T06:54:11;22.70;66.40
7606;DHT22;3844;53.360;9.738;2023-06-10T06:56:12;22.80;64.90
7606;DHT22;3844;53.360;9.738;2023-06-10T06:58:13;22.80;65.30
7606;DHT22;3844;53.360;9.738;2023-06-10T07:00:14;22.50;66.20
7606;DHT22;3844;53.360;9.738;2023-06-10T07:02:15;22.60;66.50
7606;DHT22;3844;53.360;9.738;2023-06-10T07:04:16;22.90;64.20
7606;DHT22;3844;53.360;9.738;2023-06-10T07:06:16;23.30;63.90
7606;DHT22;3844;53.360;9.738;2023-06-10T07:08:17;23.80;63.70
7606;DHT22;3844;53.360;9.738;2023-06-10T07:10:18;24.20;63.20
7606;DHT22;3844;53.360;9.738;2023-06-10T07:12:19;24.60;62.20
7606;DHT22;3844;53.360;9.738;2023-06-10T07:14:19;25.00;61.60
7606;DHT22;3844;53.360;9.738;2023-06-10T07:16:20;25.30;60.30
7606;DHT22;3844;53.360;9.738;2023-06-10T07:18:22;25.80;60.00
7606;DHT22;3844;53.360;9.738;2023-06-10T07:20:22;26.30;58.80
7606;DHT22;3844;53.360;9.738;2023-06-10T07:22:23;26.70;58.40
7606;DHT22;3844;53.360;9.738;2023-06-10T07:24:24;26.70;58.20
7606;DHT22;3844;53.360;9.738;2023-06-10T07:26:24;27.10;57.40
7606;DHT22;3844;53.360;9.738;2023-06-10T07:28:26;27.50;54.20
7606;DHT22;3844;53.360;9.738;2023-06-10T07:30:28;27.50;55.90
7606;DHT22;3844;53.360;9.738;2023-06-10T07:32:29;27.80;53.50
7606;DHT22;3844;53.360;9.738;2023-06-10T07:34:30;27.50;54.90
7606;DHT22;3844;53.360;9.738;2023-06-10T07:36:31;27.00;55.80
7606;DHT22;3844;53.360;9.738;2023-06-10T07:38:31;27.10;56.20
7606;DHT22;3844;53.360;9.738;2023-06-10T07:40:32;27.40;54.90
7606;DHT22;3844;53.360;9.738;2023-06-10T07:42:35;27.10;55.90
7606;DHT22;3844;53.360;9.738;2023-06-10T07:44:37;27.50;54.40
7606;DHT22;3844;53.360;9.738;2023-06-10T07:46:37;27.80;55.00
7606;DHT22;3844;53.360;9.738;2023-06-10T07:48:38;28.20;54.10
7606;DHT22;3844;53.360;9.738;2023-06-10T07:50:39;28.60;54.00
7606;DHT22;3844;53.360;9.738;2023-06-10T07:52:40;29.00;53.40
7606;DHT22;3844;53.360;9.738;2023-06-10T07:54:41;29.20;52.30
7606;DHT22;3844;53.360;9.738;2023-06-10T07:56:42;29.20;52.30
7606;DHT22;3844;53.360;9.738;2023-06-10T07:58:42;28.90;52.20
7606;DHT22;3844;53.360;9.738;2023-06-10T08:00:43;29.00;53.10
7606;DHT22;3844;53.360;9.738;2023-06-10T08:02:44;29.00;52.70
7606;DHT22;3844;53.360;9.738;2023-06-10T08:04:44;29.30;51.70
7606;DHT22;3844;53.360;9.738;2023-06-10T08:06:45;29.20;52.50
7606;DHT22;3844;53.360;9.738;2023-06-10T08:08:46;29.70;51.90
7606;DHT22;3844;53.360;9.738;2023-06-10T08:10:47;29.80;51.10
7606;DHT22;3844;53.360;9.738;2023-06-10T08:12:48;29.50;51.70
7606;DHT22;3844;53.360;9.738;2023-06-10T08:14:49;29.60;51.90
7606;DHT22;3844;53.360;9.738;2023-06-10T08:16:50;29.90;52.10
7606;DHT22;3844;53.360;9.738;2023-06-10T08:18:50;30.40;51.20
7606;DHT22;3844;53.360;9.738;2023-06-10T08:20:51;30.60;50.10
7606;DHT22;3844;53.360;9.738;2023-06-10T08:22:52;30.80;48.50
7606;DHT22;3844;53.360;9.738;2023-06-10T08:24:53;30.70;49.50
7606;DHT22;3844;53.360;9.738;2023-06-10T08:26:53;30.90;49.70
7606;DHT22;3844;53.360;9.738;2023-06-10T08:28:56;31.30;49.90
7606;DHT22;3844;53.360;9.738;2023-06-10T08:30:57;31.90;48.80
7606;DHT22;3844;53.360;9.738;2023-06-10T08:32:57;32.40;47.50
7606;DHT22;3844;53.360;9.738;2023-06-10T08:34:58;32.40;45.60
7606;DHT22;3844;53.360;9.738;2023-06-10T08:36:59;31.80;47.20
7606;DHT22;3844;53.360;9.738;2023-06-10T08:39:00;31.70;48.20
7606;DHT22;3844;53.360;9.738;2023-06-10T08:41:00;32.10;47.90
7606;DHT22;3844;53.360;9.738;2023-06-10T08:43:14;31.90;47.00
7606;DHT22;3844;53.360;9.738;2023-06-10T08:45:17;32.00;46.90
7606;DHT22;3844;53.360;9.738;2023-06-10T08:47:19;31.80;46.50
7606;DHT22;3844;53.360;9.738;2023-06-10T08:49:23;31.30;47.70
7606;DHT22;3844;53.360;9.738;2023-06-10T08:51:26;31.30;48.20
7606;DHT22;3844;53.360;9.738;2023-06-10T08:53:30;31.20;48.10
7606;DHT22;3844;53.360;9.738;2023-06-10T08:55:44;31.20;48.60
7606;DHT22;3844;53.360;9.738;2023-06-10T08:57:46;31.70;48.50
7606;DHT22;3844;53.360;9.738;2023-06-10T08:59:48;32.30;46.80
7606;DHT22;3844;53.360;9.738;2023-06-10T09:01:50;32.90;46.10
7606;DHT22;3844;53.360;9.738;2023-06-10T09:03:51;32.90;44.60
7606;DHT22;3844;53.360;9.738;2023-06-10T09:05:52;32.60;44.40
7606;DHT22;3844;53.360;9.738;2023-06-10T09:07:54;32.40;46.00
7606;DHT22;3844;53.360;9.738;2023-06-10T09:09:56;32.60;45.00
7606;DHT22;3844;53.360;9.738;2023-06-10T09:11:58;32.80;45.90
7606;DHT22;3844;53.360;9.738;2023-06-10T09:13:59;32.80;45.60
7606;DHT22;3844;53.360;9.738;2023-06-10T09:15:59;33.00;44.70
7606;DHT22;3844;53.360;9.738;2023-06-10T09:18:02;33.20;45.30
7606;DHT22;3844;53.360;9.738;2023-06-10T09:20:03;33.60;43.90
7606;DHT22;3844;53.360;9.738;2023-06-10T09:22:04;33.30;43.50
7606;DHT22;3844;53.360;9.738;2023-06-10T09:24:05;33.10;44.40
7606;DHT22;3844;53.360;9.738;2023-06-10T09:26:08;33.00;44.40
7606;DHT22;3844;53.360;9.738;2023-06-10T09:28:15;32.60;45.20
7606;DHT22;3844;53.360;9.738;2023-06-10T09:30:33;32.80;45.30
7606;DHT22;3844;53.360;9.738;2023-06-10T09:32:38;32.80;44.90
7606;DHT22;3844;53.360;9.738;2023-06-10T09:34:39;33.20;45.00
7606;DHT22;3844;53.360;9.738;2023-06-10T09:36:41;33.50;43.60
7606;DHT22;3844;53.360;9.738;2023-06-10T09:38:42;33.20;43.30
7606;DHT22;3844;53.360;9.738;2023-06-10T09:40:53;32.50;44.50
7606;DHT22;3844;53.360;9.738;2023-06-10T09:42:56;32.50;45.60
7606;DHT22;3844;53.360;9.738;2023-06-10T09:44:57;33.00;44.00
7606;DHT22;3844;53.360;9.738;2023-06-10T09:46:58;33.40;44.40
7606;DHT22;3844;53.360;9.738;2023-06-10T09:48:59;33.90;43.60
7606;DHT22;3844;53.360;9.738;2023-06-10T09:51:00;34.30;41.70
7606;DHT22;3844;53.360;9.738;2023-06-10T09:53:01;34.30;42.10
7606;DHT22;3844;53.360;9.738;2023-06-10T09:55:08;34.60;42.40
7606;DHT22;3844;53.360;9.738;2023-06-10T09:57:10;35.00;41.90
7606;DHT22;3844;53.360;9.738;2023-06-10T09:59:11;35.40;41.70
7606;DHT22;3844;53.360;9.738;2023-06-10T10:01:13;35.50;41.50
7606;DHT22;3844;53.360;9.738;2023-06-10T10:03:22;35.60;40.40
7606;DHT22;3844;53.360;9.738;2023-06-10T10:05:23;35.30;40.90
7606;DHT22;3844;53.360;9.738;2023-06-10T10:07:24;35.00;42.20
7606;DHT22;3844;53.360;9.738;2023-06-10T10:09:25;35.10;41.70
7606;DHT22;3844;53.360;9.738;2023-06-10T10:11:26;35.40;42.00
7606;DHT22;3844;53.360;9.738;2023-06-10T10:13:27;36.10;41.70
7606;DHT22;3844;53.360;9.738;2023-06-10T10:15:30;36.30;40.70
7606;DHT22;3844;53.360;9.738;2023-06-10T10:17:32;36.30;39.70
7606;DHT22;3844;53.360;9.738;2023-06-10T10:19:37;35.50;40.20
7606;DHT22;3844;53.360;9.738;2023-06-10T10:21:47;34.30;42.30
7606;DHT22;3844;53.360;9.738;2023-06-10T10:24:01;34.20;42.00
7606;DHT22;3844;53.360;9.738;2023-06-10T10:26:07;33.40;44.30
7606;DHT22;3844;53.360;9.738;2023-06-10T10:28:11;33.80;43.80
7606;DHT22;3844;53.360;9.738;2023-06-10T10:30:14;34.30;43.50
7606;DHT22;3844;53.360;9.738;2023-06-10T10:32:16;34.90;43.20
7606;DHT22;3844;53.360;9.738;2023-06-10T10:34:21;35.70;42.10
7606;DHT22;3844;53.360;9.738;2023-06-10T10:36:22;36.20;41.40
7606;DHT22;3844;53.360;9.738;2023-06-10T10:38:24;36.30;41.40
7606;DHT22;3844;53.360;9.738;2023-06-10T10:40:27;35.90;40.60
7606;DHT22;3844;53.360;9.738;2023-06-10T10:42:30;36.00;40.80
7606;DHT22;3844;53.360;9.738;2023-06-10T10:44:32;36.20;41.30
7606;DHT22;3844;53.360;9.738;2023-06-10T10:46:42;36.40;40.60
7606;DHT22;3844;53.360;9.738;2023-06-10T10:48:44;36.40;40.30
7606;DHT22;3844;53.360;9.738;2023-06-10T10:50:56;36.60;41.00
7606;DHT22;3844;53.360;9.738;2023-06-10T10:53:05;36.70;41.10
7606;DHT22;3844;53.360;9.738;2023-06-10T10:55:12;36.80;40.20
7606;DHT22;3844;53.360;9.738;2023-06-10T10:57:14;36.60;40.50
7606;DHT22;3844;53.360;9.738;2023-06-10T10:59:15;36.50;40.50
7606;DHT22;3844;53.360;9.738;2023-06-10T11:01:20;36.40;40.80
7606;DHT22;3844;53.360;9.738;2023-06-10T11:03:20;36.20;41.60
7606;DHT22;3844;53.360;9.738;2023-06-10T11:07:36;36.90;41.10
7606;DHT22;3844;53.360;9.738;2023-06-10T11:09:36;37.10;40.90
7606;DHT22;3844;53.360;9.738;2023-06-10T11:11:49;37.10;39.80
7606;DHT22;3844;53.360;9.738;2023-06-10T11:16:05;36.30;40.90
7606;DHT22;3844;53.360;9.738;2023-06-10T11:22:58;36.70;41.30
7606;DHT22;3844;53.360;9.738;2023-06-10T11:24:59;36.70;41.30
7606;DHT22;3844;53.360;9.738;2023-06-10T11:27:22;37.00;40.40
7606;DHT22;3844;53.360;9.738;2023-06-10T11:29:24;37.10;40.80
7606;DHT22;3844;53.360;9.738;2023-06-10T11:31:26;37.20;40.70
7606;DHT22;3844;53.360;9.738;2023-06-10T11:33:27;37.10;40.10
7606;DHT22;3844;53.360;9.738;2023-06-10T11:35:29;36.60;40.80
7606;DHT22;3844;53.360;9.738;2023-06-10T11:37:30;36.60;40.70
7606;DHT22;3844;53.360;9.738;2023-06-10T11:39:32;35.90;41.70
7606;DHT22;3844;53.360;9.738;2023-06-10T11:41:35;35.80;41.80
7606;DHT22;3844;53.360;9.738;2023-06-10T11:43:44;35.80;42.30
7606;DHT22;3844;53.360;9.738;2023-06-10T11:45:45;35.80;42.40
7606;DHT22;3844;53.360;9.738;2023-06-10T11:47:56;36.10;41.50
7606;DHT22;3844;53.360;9.738;2023-06-10T11:49:57;36.20;41.20
7606;DHT22;3844;53.360;9.738;2023-06-10T11:51:59;36.40;40.80
7606;DHT22;3844;53.360;9.738;2023-06-10T11:54:00;36.30;41.50
7606;DHT22;3844;53.360;9.738;2023-06-10T11:56:01;36.60;40.80
7606;DHT22;3844;53.360;9.738;2023-06-10T11:58:02;36.60;41.60
7606;DHT22;3844;53.360;9.738;2023-06-10T12:00:06;36.70;41.90
7606;DHT22;3844;53.360;9.738;2023-06-10T12:02:15;36.70;41.80
7606;DHT22;3844;53.360;9.738;2023-06-10T12:04:16;36.70;40.60
7606;DHT22;3844;53.360;9.738;2023-06-10T12:06:18;36.50;42.10
7606;DHT22;3844;53.360;9.738;2023-06-10T12:08:19;36.20;42.20
7606;DHT22;3844;53.360;9.738;2023-06-10T12:10:19;36.10;42.20
7606;DHT22;3844;53.360;9.738;2023-06-10T12:12:20;36.60;42.20
7606;DHT22;3844;53.360;9.738;2023-06-10T12:16:51;37.10;41.00
7606;DHT22;3844;53.360;9.738;2023-06-10T12:19:01;36.90;41.70
7606;DHT22;3844;53.360;9.738;2023-06-10T12:21:02;36.60;41.40
7606;DHT22;3844;53.360;9.738;2023-06-10T12:23:10;36.30;41.80
7606;DHT22;3844;53.360;9.738;2023-06-10T12:25:12;36.30;42.00
7606;DHT22;3844;53.360;9.738;2023-06-10T12:27:13;36.00;43.70
7606;DHT22;3844;53.360;9.738;2023-06-10T12:29:24;36.40;43.10
7606;DHT22;3844;53.360;9.738;2023-06-10T12:31:25;36.90;43.20
7606;DHT22;3844;53.360;9.738;2023-06-10T12:33:25;37.00;43.10
7606;DHT22;3844;53.360;9.738;2023-06-10T12:35:27;37.30;42.00
7606;DHT22;3844;53.360;9.738;2023-06-10T12:37:28;36.80;41.70
7606;DHT22;3844;53.360;9.738;2023-06-10T12:39:33;36.70;42.00
7606;DHT22;3844;53.360;9.738;2023-06-10T12:41:37;36.10;43.10
7606;DHT22;3844;53.360;9.738;2023-06-10T12:43:39;36.20;43.80
7606;DHT22;3844;53.360;9.738;2023-06-10T12:45:41;36.20;43.90
7606;DHT22;3844;53.360;9.738;2023-06-10T12:47:45;36.10;43.90
7606;DHT22;3844;53.360;9.738;2023-06-10T12:49:45;36.20;44.00
7606;DHT22;3844;53.360;9.738;2023-06-10T12:51:47;36.40;43.00
7606;DHT22;3844;53.360;9.738;2023-06-10T12:53:48;36.40;43.00
7606;DHT22;3844;53.360;9.738;2023-06-10T12:55:50;35.40;44.30
7606;DHT22;3844;53.360;9.738;2023-06-10T12:57:51;35.40;45.70
7606;DHT22;3844;53.360;9.738;2023-06-10T12:59:52;35.60;44.90
7606;DHT22;3844;53.360;9.738;2023-06-10T13:01:55;35.50;44.20
7606;DHT22;3844;53.360;9.738;2023-06-10T13:03:56;35.50;45.30
7606;DHT22;3844;53.360;9.738;2023-06-10T13:05:57;35.70;44.80
7606;DHT22;3844;53.360;9.738;2023-06-10T13:07:59;36.00;43.90
7606;DHT22;3844;53.360;9.738;2023-06-10T13:10:00;36.20;44.10
7606;DHT22;3844;53.360;9.738;2023-06-10T13:12:01;36.30;43.40
7606;DHT22;3844;53.360;9.738;2023-06-10T13:14:03;36.30;43.20
7606;DHT22;3844;53.360;9.738;2023-06-10T13:16:05;36.30;43.50
7606;DHT22;3844;53.360;9.738;2023-06-10T13:18:06;36.40;43.10
7606;DHT22;3844;53.360;9.738;2023-06-10T13:20:07;36.30;42.70
7606;DHT22;3844;53.360;9.738;2023-06-10T13:22:08;36.00;45.20
7606;DHT22;3844;53.360;9.738;2023-06-10T13:24:09;36.00;44.20
7606;DHT22;3844;53.360;9.738;2023-06-10T13:26:09;35.80;43.40
7606;DHT22;3844;53.360;9.738;2023-06-10T13:28:10;35.40;44.30
7606;DHT22;3844;53.360;9.738;2023-06-10T13:30:12;35.50;44.40
7606;DHT22;3844;53.360;9.738;2023-06-10T13:32:13;35.50;44.90
7606;DHT22;3844;53.360;9.738;2023-06-10T13:34:13;35.60;45.10
7606;DHT22;3844;53.360;9.738;2023-06-10T13:36:14;35.70;44.00
7606;DHT22;3844;53.360;9.738;2023-06-10T13:38:15;36.10;43.60
7606;DHT22;3844;53.360;9.738;2023-06-10T13:40:15;36.20;42.50